Change the Weather History Date:

Sunday, January 26, 2014

  Actual Average (KMUL) Record (KMUL)
Temperature  
Mean Temperature 46 °F -  
Max Temperature 59 °F 60 °F 83 °F (1950)
Min Temperature 33 °F 38 °F 18 °F (1940)
Degree Days  
Heating Degree Days 19    
Moisture  
Dew Point 37 °F    
Average Humidity 75    
Maximum Humidity 100    
Minimum Humidity 34    
Precipitation  
Precipitation 0.00 in - - ()
Sea Level Pressure  
Sea Level Pressure 30.02 in    
Wind  
Wind Speed 1 mph (SSE)    
Max Wind Speed 9 mph    
Max Gust Speed -    
Visibility 7 miles    
Events Fog    
Averages and records for this station are not official NWS values.
T = Trace of Precipitation, MM = Missing Value Source: NWS Daily Summary

Daily Weather History Graph

Daily Weather History Graph

Search for Another Location

Airport or City:

Trip Planner

Search our weather history database for the weather conditions in past years. The results will help you decide how hot, cold, wet, or windy it might be!

Date:

Astronomy

Jan. 26, 2014 Rise Set
Actual Time 7:30 AM EST 6:05 PM EST
Civil Twilight 7:04 AM EST 6:31 PM EST
Nautical Twilight 6:35 AM EST 7:00 PM EST
Astronomical Twilight 6:06 AM EST 7:29 PM EST
Moon 3:05 AM EST (1/26) 1:55 PM EST (1/26)
Length of Visible Light 11h 26m
Length of Day
10h 34m
Waning Crescent, 24% of the Moon is Illuminated
Jan 26
Waning Crescent
Jan 30
New
Feb 6
First Quarter
Feb 14
Full
Feb 22
Last Quarter

Hourly Weather History & Observations

Time (EST) Temp. Windchill Dew Point Humidity Pressure Visibility Wind Dir Wind Speed Gust Speed Precip Events Conditions
12:15 AM 44.6 °F - 44.6 °F 100% 30.04 in 5.0 mi Calm Calm - N/A   Clear
12:35 AM 44.6 °F - 44.6 °F 100% 30.03 in 4.0 mi Calm Calm - N/A   Clear
12:55 AM 42.8 °F - 42.8 °F 100% 30.03 in 2.5 mi Calm Calm - N/A   Clear
1:15 AM 42.8 °F - 42.8 °F 100% 30.03 in 4.0 mi Calm Calm - N/A   Clear
1:35 AM 42.8 °F - 42.8 °F 100% 30.03 in 7.0 mi Calm Calm - N/A   Clear
1:55 AM 42.8 °F - 42.8 °F 100% 30.03 in 4.0 mi Calm Calm - N/A   Clear
2:15 AM 41.0 °F - 41.0 °F 100% 30.02 in 0.8 mi Calm Calm - N/A   Mist
2:35 AM 41.0 °F - 41.0 °F 100% 30.02 in 0.2 mi Calm Calm - N/A Fog Fog
2:55 AM 37.4 °F - 37.4 °F 100% 30.03 in 0.2 mi Calm Calm - N/A Fog Fog
3:15 AM 37.4 °F - 37.4 °F 100% 30.03 in 0.8 mi Calm Calm - N/A   Mist
3:35 AM 37.4 °F - 37.4 °F 100% 30.03 in 0.5 mi Calm Calm - N/A Fog Fog
3:55 AM 37.4 °F - 37.4 °F 100% 30.03 in 0.2 mi Calm Calm - N/A Fog Fog
4:15 AM 35.6 °F - 35.6 °F 100% 30.03 in 0.8 mi Calm Calm - N/A   Mist
4:35 AM 37.4 °F - 37.4 °F 100% 30.03 in 1.2 mi Calm Calm - N/A   Mist
4:55 AM 37.4 °F - 37.4 °F 100% 30.03 in 0.2 mi Calm Calm - N/A Fog Fog
5:15 AM 35.6 °F - 35.6 °F 100% 30.03 in 1.0 mi Calm Calm - N/A   Mist
5:35 AM 35.6 °F - 35.6 °F 100% 30.04 in 0.5 mi Calm Calm - N/A Fog Fog
5:55 AM 35.6 °F - 35.6 °F 100% 30.05 in 0.5 mi Calm Calm - N/A Fog Fog
6:15 AM 35.6 °F - 35.6 °F 100% 30.06 in 0.5 mi Calm Calm - N/A Fog Fog
6:55 AM 35.6 °F - 35.6 °F 100% 30.06 in 0.5 mi Calm Calm - N/A Fog Fog
7:15 AM 33.8 °F - 33.8 °F 100% 30.06 in 0.5 mi Calm Calm - N/A Fog Fog
7:35 AM 33.8 °F - 33.8 °F 100% 30.06 in 1.0 mi Calm Calm - N/A   Mostly Cloudy
7:55 AM 35.6 °F - 35.6 °F 100% 30.06 in 0.2 mi Calm Calm - N/A Fog Fog
8:15 AM 35.6 °F - 35.6 °F 100% 30.06 in 0.5 mi Calm Calm - N/A Fog Fog
8:35 AM 35.6 °F - 35.6 °F 100% 30.07 in 0.5 mi Calm Calm - N/A Fog Fog
8:55 AM 37.4 °F - 37.4 °F 100% 30.07 in 3.0 mi Calm Calm - N/A   Clear
9:15 AM 39.2 °F - 39.2 °F 100% 30.08 in 3.0 mi Calm Calm - N/A   Clear
9:35 AM 41.0 °F - 41.0 °F 100% 30.08 in 7.0 mi Calm Calm - N/A   Clear
9:55 AM 42.8 °F - 42.8 °F 100% 30.09 in 10.0 mi Calm Calm - N/A   Clear
10:15 AM 44.6 °F - 44.6 °F 100% 30.09 in 10.0 mi Calm Calm - N/A   Clear
10:35 AM 46.4 °F - 46.4 °F 100% 30.09 in 10.0 mi Calm Calm - N/A   Clear
10:55 AM 44.6 °F - 44.6 °F 100% 30.10 in 10.0 mi Calm Calm - N/A   Clear
11:15 AM 46.4 °F 45.2 °F 44.6 °F 93% 30.10 in 10.0 mi SE 3.5 mph - N/A   Clear
11:35 AM 51.8 °F - 39.2 °F 62% 30.10 in 10.0 mi SE 5.8 mph - N/A   Clear
11:55 AM 51.8 °F - 35.6 °F 54% 30.09 in 10.0 mi SE 5.8 mph - N/A   Clear
12:15 PM 53.6 °F - 32.0 °F 44% 30.08 in 10.0 mi ESE 4.6 mph - N/A   Clear
12:35 PM 53.6 °F - 33.8 °F 47% 30.07 in 10.0 mi SE 3.5 mph - N/A   Clear
12:55 PM 53.6 °F - 32.0 °F 44% 30.05 in 10.0 mi SSE 5.8 mph - N/A   Clear
1:15 PM 55.4 °F - 32.0 °F 41% 30.04 in 10.0 mi ESE 5.8 mph - N/A   Clear
1:35 PM 57.2 °F - 32.0 °F 38% 30.03 in 10.0 mi SE 3.5 mph - N/A   Clear
1:55 PM 59.0 °F - 30.2 °F 34% 30.02 in 10.0 mi South 9.2 mph - N/A   Clear
2:15 PM 59.0 °F - 32.0 °F 36% 30.01 in 10.0 mi SE 4.6 mph - N/A   Clear
2:35 PM 57.2 °F - 32.0 °F 38% 30.00 in 10.0 mi South 4.6 mph - N/A   Clear
2:55 PM 59.0 °F - 32.0 °F 36% 29.99 in 10.0 mi South 3.5 mph - N/A   Clear
3:15 PM 57.2 °F - 32.0 °F 38% 29.99 in 10.0 mi South 4.6 mph - N/A   Clear
3:35 PM 57.2 °F - 32.0 °F 38% 29.98 in 10.0 mi Calm Calm - N/A   Clear
3:55 PM 57.2 °F - 32.0 °F 38% 29.98 in 10.0 mi SSE 3.5 mph - N/A   Clear
4:15 PM 57.2 °F - 32.0 °F 38% 29.97 in 10.0 mi Calm Calm - N/A   Clear
4:35 PM 57.2 °F - 33.8 °F 41% 29.97 in 10.0 mi SSW 4.6 mph - N/A   Clear
4:55 PM 57.2 °F - 33.8 °F 41% 29.97 in 10.0 mi South 5.8 mph - N/A   Clear
5:15 PM 55.4 °F - 35.6 °F 47% 29.98 in 10.0 mi South 3.5 mph - N/A   Clear
5:35 PM 55.4 °F - 35.6 °F 47% 29.97 in 10.0 mi South 3.5 mph - N/A   Clear
5:55 PM 55.4 °F - 37.4 °F 51% 29.96 in 10.0 mi Calm Calm - N/A   Scattered Clouds
6:15 PM 53.6 °F - 39.2 °F 58% 29.97 in 10.0 mi Calm Calm - N/A   Scattered Clouds
6:35 PM 51.8 °F - 41.0 °F 67% 29.96 in 10.0 mi Calm Calm - N/A   Clear
6:55 PM 51.8 °F - 41.0 °F 67% 29.96 in 10.0 mi Calm Calm - N/A   Clear
7:15 PM 51.8 °F - 39.2 °F 62% 29.97 in 10.0 mi SSE 3.5 mph - N/A   Clear
7:35 PM 51.8 °F - 37.4 °F 58% 29.97 in 10.0 mi Calm Calm - N/A   Clear
7:55 PM 50.0 °F - 37.4 °F 62% 29.98 in 10.0 mi Calm Calm - N/A   Clear
8:15 PM 50.0 °F - 39.2 °F 66% 29.99 in 10.0 mi Calm Calm - N/A   Clear
8:35 PM 50.0 °F - 37.4 °F 62% 29.99 in 10.0 mi Calm Calm - N/A   Clear
8:55 PM 50.0 °F - 37.4 °F 62% 29.99 in 10.0 mi South 4.6 mph - N/A   Clear
9:15 PM 50.0 °F - 37.4 °F 62% 29.99 in 10.0 mi SSW 3.5 mph - N/A   Clear
9:35 PM 50.0 °F - 37.4 °F 62% 29.99 in 10.0 mi SSW 3.5 mph - N/A   Clear
9:55 PM 50.0 °F - 37.4 °F 62% 29.99 in 10.0 mi South 3.5 mph - N/A   Clear
10:15 PM 50.0 °F - 37.4 °F 62% 30.00 in 10.0 mi Calm Calm - N/A   Clear
10:35 PM 50.0 °F - 39.2 °F 66% 30.00 in 10.0 mi Calm Calm - N/A   Clear
10:55 PM 48.2 °F - 39.2 °F 71% 30.00 in 10.0 mi Calm Calm - N/A   Scattered Clouds
11:15 PM 48.2 °F - 39.2 °F 71% 30.01 in 10.0 mi Calm Calm - N/A   Clear
11:35 PM 48.2 °F - 41.0 °F 76% 30.00 in 10.0 mi Calm Calm - N/A   Clear
11:55 PM 48.2 °F - 41.0 °F 76% 29.99 in 10.0 mi Calm Calm - N/A   Clear